createdAt,value
2018-07-20T00:00:23.291Z,9.43
2018-07-20T00:02:51.635Z,8.80
2018-07-20T00:05:19.954Z,8.67
2018-07-20T00:07:48.294Z,9.77
2018-07-20T00:10:16.802Z,9.03
2018-07-20T00:12:45.131Z,8.47
2018-07-20T00:15:13.524Z,8.57
2018-07-20T00:17:41.916Z,8.50
2018-07-20T00:20:10.246Z,8.57
2018-07-20T00:22:38.618Z,8.50
2018-07-20T00:25:06.976Z,8.60
2018-07-20T00:27:35.282Z,8.80
2018-07-20T00:30:03.900Z,8.10
2018-07-20T00:32:32.216Z,7.63
2018-07-20T00:35:00.532Z,7.37
2018-07-20T00:37:28.931Z,7.80
2018-07-20T00:39:57.243Z,7.30
2018-07-20T00:42:25.732Z,7.07
2018-07-20T00:44:54.100Z,7.33
2018-07-20T00:47:22.416Z,7.00
2018-07-20T00:49:50.731Z,6.10
2018-07-20T00:52:19.241Z,5.87
2018-07-20T00:54:47.621Z,6.23
2018-07-20T00:57:15.986Z,6.03
2018-07-20T00:59:44.583Z,6.27
2018-07-20T01:02:12.916Z,5.87
2018-07-20T01:04:41.241Z,5.10
2018-07-20T01:07:09.715Z,5.70
2018-07-20T01:09:38.023Z,4.83
2018-07-20T01:12:06.448Z,5.07
2018-07-20T01:14:34.798Z,4.73
2018-07-20T01:17:03.127Z,4.67
2018-07-20T01:19:31.511Z,4.30
2018-07-20T01:21:59.883Z,4.40
2018-07-20T01:24:28.206Z,4.33
2018-07-20T01:26:56.535Z,4.47
2018-07-20T01:29:24.879Z,4.30
2018-07-20T01:31:53.206Z,4.47
2018-07-20T01:34:21.474Z,4.40
2018-07-20T01:36:49.833Z,3.60
2018-07-20T01:39:18.135Z,4.43
2018-07-20T01:41:46.484Z,4.60
2018-07-20T01:44:14.846Z,3.97
2018-07-20T01:46:43.165Z,4.10
2018-07-20T01:49:11.494Z,4.00
2018-07-20T01:51:39.858Z,3.83
2018-07-20T01:54:08.196Z,3.77
2018-07-20T01:56:36.511Z,3.60
2018-07-20T01:59:04.884Z,3.63
2018-07-20T02:01:33.281Z,3.73
2018-07-20T02:04:01.607Z,3.77
2018-07-20T02:06:29.949Z,3.50
2018-07-20T02:08:58.247Z,3.57
2018-07-20T02:11:26.566Z,3.33
2018-07-20T02:13:54.726Z,3.73
2018-07-20T02:16:23.058Z,3.70
2018-07-20T02:18:51.456Z,3.80
2018-07-20T02:21:19.814Z,3.63
2018-07-20T02:23:48.133Z,3.53
2018-07-20T02:26:16.482Z,3.57
2018-07-20T02:28:44.812Z,3.20
2018-07-20T02:31:12.870Z,3.30
2018-07-20T02:33:41.063Z,3.10
2018-07-20T02:36:09.402Z,3.13
2018-07-20T02:38:37.775Z,3.30
2018-07-20T02:41:06.254Z,3.20
2018-07-20T02:43:34.855Z,3.30
2018-07-20T02:46:03.176Z,3.50
2018-07-20T02:48:31.508Z,3.10
2018-07-20T02:50:59.844Z,3.10
2018-07-20T02:53:28.228Z,2.87
2018-07-20T02:55:56.855Z,3.50
2018-07-20T02:58:24.944Z,3.27
2018-07-20T03:00:53.510Z,2.90
2018-07-20T03:03:25.175Z,3.37
2018-07-20T03:05:53.490Z,2.90
2018-07-20T03:08:21.816Z,2.80
2018-07-20T03:10:50.143Z,2.93
2018-07-20T03:13:18.479Z,2.90
2018-07-20T03:15:46.869Z,2.77
2018-07-20T03:18:15.171Z,2.60
2018-07-20T03:20:43.542Z,2.70
2018-07-20T03:23:11.874Z,2.60
2018-07-20T03:25:40.216Z,2.77
2018-07-20T03:28:08.566Z,2.70
2018-07-20T03:30:36.911Z,2.60
2018-07-20T03:33:05.295Z,2.73
2018-07-20T03:35:33.622Z,2.67
2018-07-20T03:38:01.795Z,2.50
2018-07-20T03:40:30.164Z,2.80
2018-07-20T03:42:58.463Z,2.57
2018-07-20T03:45:26.833Z,2.77
2018-07-20T03:47:55.175Z,2.80
2018-07-20T03:50:23.518Z,2.60
2018-07-20T03:52:51.846Z,2.33
2018-07-20T03:55:19.927Z,2.30
2018-07-20T03:57:48.300Z,2.20
2018-07-20T04:00:16.847Z,2.57
2018-07-20T04:02:45.228Z,2.30
2018-07-20T04:05:13.583Z,2.60
2018-07-20T04:07:41.890Z,2.23
2018-07-20T04:10:10.219Z,2.37
2018-07-20T04:12:38.550Z,2.33
2018-07-20T04:15:06.905Z,2.13
2018-07-20T04:17:42.512Z,2.10
2018-07-20T04:20:10.678Z,2.10
2018-07-20T04:22:39.025Z,2.00
2018-07-20T04:25:07.503Z,2.40
2018-07-20T04:27:36.107Z,2.30
2018-07-20T04:30:07.898Z,2.40
2018-07-20T04:32:36.331Z,2.30
2018-07-20T04:35:04.664Z,1.97
2018-07-20T04:37:32.978Z,2.27
2018-07-20T04:40:01.311Z,2.40
2018-07-20T04:42:29.667Z,2.30
2018-07-20T04:44:57.982Z,2.40
2018-07-20T04:47:26.594Z,2.20
2018-07-20T04:49:55.220Z,2.20
2018-07-20T04:52:23.511Z,2.47
2018-07-20T04:54:51.846Z,2.10
2018-07-20T04:57:20.156Z,1.93
2018-07-20T04:59:48.529Z,2.13
2018-07-20T05:02:16.866Z,1.93
2018-07-20T05:04:45.219Z,2.03
2018-07-20T05:07:13.583Z,2.00
2018-07-20T05:09:41.932Z,2.17
2018-07-20T05:12:11.149Z,2.23
2018-07-20T05:14:39.482Z,2.30
2018-07-20T05:17:07.826Z,1.97
2018-07-20T05:19:36.169Z,2.10
2018-07-20T05:22:04.528Z,2.03
2018-07-20T05:24:32.843Z,2.13
2018-07-20T05:27:01.164Z,2.20
2018-07-20T05:29:29.531Z,2.33
2018-07-20T05:31:57.921Z,1.93
2018-07-20T05:34:26.272Z,2.10
2018-07-20T05:36:54.698Z,2.30
2018-07-20T05:39:23.006Z,1.97
2018-07-20T05:41:51.363Z,2.10
2018-07-20T05:44:19.714Z,2.17
2018-07-20T05:46:48.343Z,2.10
2018-07-20T05:49:16.656Z,1.80
2018-07-20T05:51:45.628Z,2.13
2018-07-20T05:54:13.997Z,2.27
2018-07-20T05:56:42.058Z,2.00
2018-07-20T05:59:10.514Z,2.13
2018-07-20T06:01:38.866Z,2.20
2018-07-20T06:04:07.215Z,2.20
2018-07-20T06:06:35.524Z,2.23
2018-07-20T06:09:06.192Z,2.23
2018-07-20T06:11:34.295Z,24.03
2018-07-20T06:14:02.636Z,20.57
2018-07-20T06:16:31.010Z,14.93
2018-07-20T06:18:59.464Z,17.17
2018-07-20T06:21:27.914Z,15.43
2018-07-20T06:23:56.271Z,15.93
2018-07-20T06:26:24.750Z,24.57
2018-07-20T06:28:53.100Z,22.27
2018-07-20T06:31:21.491Z,22.03
2018-07-20T06:33:49.831Z,23.87
2018-07-20T06:36:18.192Z,24.47
2018-07-20T06:38:46.591Z,18.73
2018-07-20T06:41:15.016Z,18.60
2018-07-20T06:43:43.379Z,18.23
2018-07-20T06:46:11.761Z,22.40
2018-07-20T06:48:40.112Z,27.93
2018-07-20T06:51:09.027Z,37.60
2018-07-20T06:53:37.133Z,30.67
2018-07-20T06:56:05.539Z,35.13
2018-07-20T06:58:33.973Z,35.47
2018-07-20T07:01:02.331Z,26.07
2018-07-20T07:03:30.654Z,24.93
2018-07-20T07:05:58.794Z,26.73
2018-07-20T07:08:27.118Z,24.87
2018-07-20T07:10:55.493Z,29.50
2018-07-20T07:13:23.859Z,39.07
2018-07-20T07:15:52.532Z,46.27
2018-07-20T07:18:20.874Z,39.13
2018-07-20T07:20:49.495Z,41.23
2018-07-20T07:23:17.868Z,45.73
2018-07-20T07:25:46.208Z,47.63
2018-07-20T07:28:14.545Z,43.97
2018-07-20T07:30:42.875Z,43.10
2018-07-20T07:33:11.599Z,42.60
2018-07-20T07:35:40.325Z,50.20
2018-07-20T07:38:08.708Z,51.20
2018-07-20T07:40:37.048Z,49.90
2018-07-20T07:43:05.378Z,42.07
2018-07-20T07:45:34.082Z,41.77
2018-07-20T07:48:02.391Z,40.43
2018-07-20T07:50:30.729Z,39.27
2018-07-20T07:52:59.075Z,33.73
2018-07-20T07:55:27.395Z,27.90
2018-07-20T07:57:55.702Z,28.27
2018-07-20T08:00:24.053Z,27.37
2018-07-20T08:02:52.366Z,31.20
2018-07-20T08:05:20.670Z,31.80
2018-07-20T08:07:49.002Z,37.47
2018-07-20T08:10:17.376Z,53.20
2018-07-20T08:12:45.664Z,41.47
2018-07-20T08:15:15.186Z,32.77
2018-07-20T08:17:44.539Z,30.33
2018-07-20T08:20:12.936Z,27.57
2018-07-20T08:22:41.614Z,24.83
2018-07-20T08:25:09.946Z,24.40
2018-07-20T08:27:38.238Z,24.10
2018-07-20T08:30:06.591Z,22.50
2018-07-20T08:32:34.898Z,21.53
2018-07-20T08:35:03.231Z,20.60
2018-07-20T08:37:31.553Z,19.87
2018-07-20T08:39:59.927Z,20.10
2018-07-20T08:42:28.206Z,19.87
2018-07-20T08:44:56.518Z,19.60
2018-07-20T08:47:24.815Z,18.57
2018-07-20T08:49:53.152Z,17.93
2018-07-20T08:52:21.444Z,17.80
2018-07-20T08:54:49.750Z,17.33
2018-07-20T08:57:18.075Z,17.23
2018-07-20T08:59:46.691Z,17.03
2018-07-20T09:02:15.010Z,16.30
2018-07-20T09:04:43.320Z,15.73
2018-07-20T09:07:11.654Z,15.63
2018-07-20T09:09:39.950Z,14.47
2018-07-20T09:12:08.705Z,14.10
2018-07-20T09:14:37.011Z,13.30
2018-07-20T09:17:05.312Z,13.10
2018-07-20T09:19:33.629Z,12.97
2018-07-20T09:22:02.002Z,12.97
2018-07-20T09:24:30.287Z,12.83
2018-07-20T09:26:58.619Z,11.80
2018-07-20T09:29:26.946Z,11.67
2018-07-20T09:31:56.975Z,11.97
2018-07-20T09:34:25.306Z,11.53
2018-07-20T09:36:53.658Z,11.37
2018-07-20T09:39:21.991Z,11.20
2018-07-20T09:41:50.066Z,10.57
2018-07-20T09:44:18.174Z,10.93
2018-07-20T09:46:46.466Z,9.97
2018-07-20T09:49:14.808Z,10.00
2018-07-20T09:51:43.892Z,9.93
2018-07-20T09:54:12.237Z,9.43
2018-07-20T09:56:40.528Z,9.80
2018-07-20T09:59:08.837Z,8.73
2018-07-20T10:01:37.155Z,9.43
2018-07-20T10:04:05.616Z,8.57
2018-07-20T10:06:33.920Z,8.90
2018-07-20T10:09:02.202Z,8.93
2018-07-20T10:11:30.544Z,8.30
2018-07-20T10:13:58.903Z,11.80
2018-07-20T10:16:27.226Z,11.80
2018-07-20T10:18:55.609Z,11.20
2018-07-20T10:21:23.908Z,13.57
2018-07-20T10:23:51.988Z,26.03
2018-07-20T10:26:20.348Z,22.40
2018-07-20T10:28:48.690Z,19.53
2018-07-20T10:31:17.535Z,19.30
2018-07-20T10:33:46.601Z,18.50
2018-07-20T10:36:14.930Z,17.73
2018-07-20T10:38:43.260Z,16.97
2018-07-20T10:41:11.593Z,23.67
2018-07-20T10:43:39.927Z,28.23
2018-07-20T10:46:08.043Z,31.03
2018-07-20T10:48:36.695Z,33.83
2018-07-20T10:51:05.026Z,44.50
2018-07-20T10:53:33.340Z,40.93
2018-07-20T10:56:01.729Z,41.80
2018-07-20T10:58:30.063Z,40.53
2018-07-20T11:00:58.377Z,36.43
2018-07-20T11:03:26.715Z,32.37
2018-07-20T11:05:55.039Z,31.57
2018-07-20T11:08:23.386Z,30.77
2018-07-20T11:10:51.738Z,36.50
2018-07-20T11:13:20.026Z,40.90
2018-07-20T11:15:48.344Z,39.87
2018-07-20T11:18:16.651Z,40.53
2018-07-20T11:20:45.040Z,36.43
2018-07-20T11:23:13.367Z,36.83
2018-07-20T11:25:41.686Z,35.53
2018-07-20T11:28:09.991Z,29.67
2018-07-20T11:30:38.063Z,28.70
2018-07-20T11:33:06.363Z,26.03
2018-07-20T11:35:34.675Z,26.60
2018-07-20T11:38:03.194Z,25.77
2018-07-20T11:40:31.511Z,24.27
2018-07-20T11:42:59.813Z,30.43
2018-07-20T11:45:28.140Z,30.50
2018-07-20T11:47:56.610Z,31.50
2018-07-20T11:50:24.927Z,32.03
2018-07-20T11:52:53.258Z,28.57
2018-07-20T11:55:21.626Z,27.17
2018-07-20T11:57:49.830Z,24.97
2018-07-20T12:00:18.156Z,24.20
2018-07-20T12:02:46.470Z,28.60
2018-07-20T12:05:14.756Z,26.57
2018-07-20T12:07:42.878Z,28.17
2018-07-20T12:10:11.189Z,30.70
2018-07-20T12:12:39.494Z,35.63
2018-07-20T12:15:07.803Z,33.27
2018-07-20T12:17:36.265Z,34.23
2018-07-20T12:20:04.594Z,29.50
2018-07-20T12:22:32.953Z,27.03
2018-07-20T12:25:01.320Z,26.00
2018-07-20T12:27:29.738Z,23.63
2018-07-20T12:29:57.855Z,20.70
2018-07-20T12:32:26.126Z,20.13
2018-07-20T12:34:54.438Z,21.03
2018-07-20T12:37:22.735Z,19.17
2018-07-20T12:39:51.047Z,18.90
2018-07-20T12:42:19.376Z,18.07
2018-07-20T12:44:47.975Z,16.77
2018-07-20T12:47:16.786Z,15.67
2018-07-20T12:49:45.093Z,16.23
2018-07-20T12:52:13.388Z,15.60
2018-07-20T12:54:41.725Z,15.27
2018-07-20T12:57:10.139Z,14.60
2018-07-20T12:59:38.500Z,13.63
2018-07-20T13:02:06.979Z,13.33
2018-07-20T13:04:35.307Z,12.63
2018-07-20T13:07:03.622Z,15.67
2018-07-20T13:09:31.954Z,17.80
2018-07-20T13:12:00.329Z,16.57
2018-07-20T13:14:28.345Z,22.10
2018-07-20T13:16:56.665Z,20.43
2018-07-20T13:19:25.044Z,25.27
2018-07-20T13:21:53.354Z,20.67
2018-07-20T13:24:21.655Z,18.83
2018-07-20T13:26:49.982Z,17.47
2018-07-20T13:29:18.285Z,17.60
2018-07-20T13:31:46.614Z,16.03
2018-07-20T13:34:14.922Z,17.03
2018-07-20T13:36:43.238Z,16.43
2018-07-20T13:39:11.979Z,14.63
2018-07-20T13:41:40.988Z,23.23
2018-07-20T13:44:09.356Z,39.80
2018-07-20T13:46:37.965Z,34.37
2018-07-20T13:49:06.463Z,26.07
2018-07-20T13:51:34.513Z,25.17
2018-07-20T13:54:02.823Z,23.83
2018-07-20T13:56:31.131Z,22.93
2018-07-20T13:58:59.495Z,21.50
2018-07-20T14:01:27.831Z,22.20
2018-07-20T14:03:56.136Z,20.57
2018-07-20T14:06:24.455Z,19.03
2018-07-20T14:08:52.835Z,18.10
2018-07-20T14:11:21.175Z,17.60
2018-07-20T14:13:49.639Z,17.50
2018-07-20T14:16:17.978Z,17.57
2018-07-20T14:18:46.279Z,16.47
2018-07-20T14:21:14.591Z,16.37
2018-07-20T14:23:42.941Z,15.50
2018-07-20T14:26:11.231Z,15.23
2018-07-20T14:28:39.531Z,13.13
2018-07-20T14:31:08.033Z,14.23
2018-07-20T14:33:36.362Z,12.20
2018-07-20T14:36:04.675Z,12.23
2018-07-20T14:38:33.020Z,11.43
2018-07-20T14:41:01.313Z,10.80
2018-07-20T14:43:29.607Z,11.13
2018-07-20T14:45:58.030Z,15.20
2018-07-20T14:48:26.351Z,16.03
2018-07-20T14:50:54.734Z,15.53
2018-07-20T14:53:23.068Z,15.77
2018-07-20T14:55:51.537Z,21.37
2018-07-20T14:58:19.874Z,19.73
2018-07-20T15:00:48.230Z,18.87
2018-07-20T15:03:16.533Z,20.33
2018-07-20T15:05:44.830Z,19.80
2018-07-20T15:08:13.159Z,19.90
2018-07-20T15:10:41.456Z,20.53
2018-07-20T15:13:09.781Z,19.47
2018-07-20T15:15:38.157Z,18.37
2018-07-20T15:18:06.504Z,18.83
2018-07-20T15:20:34.860Z,18.23
2018-07-20T15:23:03.202Z,17.77
2018-07-20T15:25:31.279Z,18.43
2018-07-20T15:27:59.315Z,17.80
2018-07-20T15:30:27.662Z,18.00
2018-07-20T15:32:56.043Z,18.20
2018-07-20T15:35:24.355Z,16.30
2018-07-20T15:37:52.708Z,17.00
2018-07-20T15:40:21.039Z,18.67
2018-07-20T15:42:49.339Z,19.63
2018-07-20T15:45:17.792Z,17.57
2018-07-20T15:47:45.829Z,17.90
2018-07-20T15:50:14.145Z,16.77
2018-07-20T15:53:35.718Z,15.40
2018-07-20T15:55:10.570Z,15.87
2018-07-20T15:57:39.049Z,13.93
2018-07-20T16:00:07.662Z,134.43
2018-07-20T16:02:36.099Z,20.50
2018-07-20T16:05:04.571Z,18.83
2018-07-20T16:07:32.887Z,22.43
2018-07-20T16:10:01.208Z,32.60
2018-07-20T16:12:29.530Z,33.17
2018-07-20T16:14:57.920Z,32.40
2018-07-20T16:17:26.597Z,37.57
2018-07-20T16:19:54.909Z,41.50
2018-07-20T16:22:23.426Z,49.80
2018-07-20T16:24:51.749Z,56.47
2018-07-20T16:27:20.092Z,61.63
2018-07-20T16:29:48.395Z,86.33
2018-07-20T16:32:16.723Z,169.70
2018-07-20T16:34:45.206Z,112.77
2018-07-20T16:37:13.614Z,98.70
2018-07-20T16:39:41.914Z,96.87
2018-07-20T16:42:10.624Z,76.13
2018-07-20T16:44:38.934Z,81.00
2018-07-20T16:47:07.364Z,67.90
2018-07-20T16:49:35.665Z,52.03
2018-07-20T16:52:04.027Z,51.33
2018-07-20T16:54:32.334Z,49.50
2018-07-20T16:57:00.655Z,36.57
2018-07-20T16:59:28.983Z,34.87
2018-07-20T17:01:57.283Z,27.83
2018-07-20T17:04:25.618Z,21.93
2018-07-20T17:06:53.919Z,17.23
2018-07-20T17:09:22.228Z,13.03
2018-07-20T17:11:50.545Z,10.13
2018-07-20T17:14:18.872Z,9.00
2018-07-20T17:16:47.248Z,6.77
2018-07-20T17:19:15.548Z,7.93
2018-07-20T17:21:43.935Z,9.67
2018-07-20T17:24:12.237Z,8.33
2018-07-20T17:26:40.540Z,7.37
2018-07-20T17:29:08.871Z,10.00
2018-07-20T17:31:37.176Z,11.77
2018-07-20T17:34:05.595Z,10.47
2018-07-20T17:36:33.957Z,7.70
2018-07-20T17:39:02.245Z,8.13
2018-07-20T17:41:30.543Z,9.33
2018-07-20T17:43:58.902Z,9.47
2018-07-20T17:46:27.203Z,7.80
2018-07-20T17:48:55.540Z,6.70
2018-07-20T17:51:23.831Z,7.47
2018-07-20T17:53:52.142Z,8.30
2018-07-20T17:56:20.483Z,7.50
2018-07-20T17:58:48.798Z,8.00
2018-07-20T18:01:17.243Z,7.37
2018-07-20T18:03:45.668Z,5.33
2018-07-20T18:06:13.956Z,4.90
2018-07-20T18:08:42.242Z,4.10
2018-07-20T18:11:10.579Z,3.90
2018-07-20T18:13:38.934Z,3.20
2018-07-20T18:16:07.259Z,3.00
2018-07-20T18:18:35.539Z,2.83
2018-07-20T18:21:03.842Z,2.93
2018-07-20T18:23:32.138Z,2.60
2018-07-20T18:26:00.532Z,2.60
2018-07-20T18:28:28.917Z,12.43
2018-07-20T18:30:57.256Z,9.50
2018-07-20T18:33:25.790Z,12.27
2018-07-20T18:35:54.205Z,13.53
2018-07-20T18:38:22.518Z,12.60
2018-07-20T18:40:50.837Z,8.93
2018-07-20T18:43:19.159Z,8.53
2018-07-20T18:45:47.634Z,7.33
2018-07-20T18:48:15.935Z,5.93
2018-07-20T18:50:44.238Z,4.03
2018-07-20T18:53:18.232Z,5.90
2018-07-20T18:55:46.612Z,8.90
2018-07-20T18:58:14.929Z,10.43
2018-07-20T19:00:43.485Z,5.43
2018-07-20T19:03:11.807Z,8.17
2018-07-20T19:05:39.880Z,6.43
2018-07-20T19:08:07.956Z,5.13
2018-07-20T19:10:36.255Z,4.20
2018-07-20T19:13:04.616Z,5.60
2018-07-20T19:15:32.916Z,4.50
2018-07-20T19:18:01.229Z,7.47
2018-07-20T19:20:32.371Z,13.50
2018-07-20T19:23:00.706Z,11.37
2018-07-20T19:25:34.533Z,13.07
2018-07-20T19:28:02.938Z,11.70
2018-07-20T19:30:31.271Z,11.27
2018-07-20T19:32:59.599Z,10.87
2018-07-20T19:35:27.906Z,9.90
2018-07-20T19:37:56.298Z,6.70
2018-07-20T19:40:24.673Z,3.80
2018-07-20T19:42:55.169Z,14.93
2018-07-20T19:45:23.920Z,24.10
2018-07-20T19:47:52.291Z,36.03
2018-07-20T19:50:20.624Z,18.43
2018-07-20T19:52:49.035Z,16.33
2018-07-20T19:55:17.384Z,16.13
2018-07-20T19:57:45.455Z,15.13
2018-07-20T20:00:13.835Z,13.70
2018-07-20T20:02:42.274Z,13.40
2018-07-20T20:05:10.618Z,13.10
2018-07-20T20:07:38.965Z,13.03
2018-07-20T20:10:07.197Z,20.43
2018-07-20T20:12:35.661Z,20.77
2018-07-20T20:15:04.473Z,88.30
2018-07-20T20:17:34.035Z,43.67
2018-07-20T20:20:02.347Z,26.10
2018-07-20T20:22:30.649Z,24.43
2018-07-20T20:24:59.030Z,23.20
2018-07-20T20:27:27.357Z,22.93
2018-07-20T20:29:55.657Z,22.23
2018-07-20T20:32:24.024Z,20.73
2018-07-20T20:34:52.371Z,19.47
2018-07-20T20:37:20.692Z,19.70
2018-07-20T20:39:49.005Z,19.37
2018-07-20T20:42:17.371Z,18.87
2018-07-20T20:44:45.701Z,18.07
2018-07-20T20:47:13.983Z,19.27
2018-07-20T20:49:42.410Z,6.30
2018-07-20T20:52:10.764Z,5.60
2018-07-20T20:54:39.135Z,9.10
2018-07-20T20:57:07.528Z,8.77
2018-07-20T20:59:35.898Z,6.23
2018-07-20T21:02:04.250Z,3.17
2018-07-20T21:04:32.702Z,2.70
2018-07-20T21:07:01.016Z,2.57
2018-07-20T21:09:29.517Z,1.90
2018-07-20T21:11:57.968Z,6.90
2018-07-20T21:14:26.310Z,8.73
2018-07-20T21:16:54.871Z,9.17
2018-07-20T21:19:23.342Z,6.70
2018-07-20T21:21:51.737Z,4.03
2018-07-20T21:24:20.200Z,4.23
2018-07-20T21:26:48.747Z,4.90
2018-07-20T21:29:17.194Z,2.67
2018-07-20T21:31:46.047Z,2.10
2018-07-20T21:34:14.613Z,2.27
2018-07-20T21:36:43.108Z,2.10
2018-07-20T21:39:12.955Z,1.50
2018-07-20T21:41:42.346Z,1.50
2018-07-20T21:44:10.635Z,2.20
2018-07-20T21:46:39.435Z,1.60
2018-07-20T21:49:07.875Z,1.70
2018-07-20T21:51:36.594Z,1.70
2018-07-20T21:54:05.099Z,1.90
2018-07-20T21:56:33.452Z,1.80
2018-07-20T21:59:01.900Z,1.40
2018-07-20T22:01:30.424Z,8.93
2018-07-20T22:03:58.826Z,2.40
2018-07-20T22:06:27.204Z,3.90
2018-07-20T22:08:55.795Z,5.63
2018-07-20T22:11:24.199Z,2.63
2018-07-20T22:13:52.767Z,4.07
2018-07-20T22:16:21.214Z,11.20
2018-07-20T22:18:49.638Z,7.97
2018-07-20T22:21:18.166Z,9.27
2018-07-20T22:23:46.998Z,8.30
2018-07-20T22:26:15.459Z,7.00
2018-07-20T22:28:44.206Z,4.70
2018-07-20T22:31:12.564Z,2.70
2018-07-20T22:33:41.084Z,6.50
2018-07-20T22:36:09.452Z,31.30
2018-07-20T22:38:37.876Z,15.80
2018-07-20T22:41:06.251Z,11.00
2018-07-20T22:43:34.715Z,8.57
2018-07-20T22:46:02.990Z,4.27
2018-07-20T22:48:31.362Z,4.67
2018-07-20T22:50:59.719Z,3.37
2018-07-20T22:53:28.031Z,2.40
2018-07-20T22:55:56.178Z,2.67
2018-07-20T22:58:24.490Z,2.33
2018-07-20T23:00:53.029Z,1.77
2018-07-20T23:03:21.311Z,2.07
2018-07-20T23:05:49.739Z,1.80
2018-07-20T23:08:18.087Z,1.90
2018-07-20T23:10:46.609Z,2.23
2018-07-20T23:13:14.924Z,2.00
2018-07-20T23:15:43.256Z,1.90
2018-07-20T23:18:12.348Z,2.13
2018-07-20T23:20:40.492Z,1.97
2018-07-20T23:23:08.758Z,2.10
2018-07-20T23:25:37.067Z,1.77
2018-07-20T23:28:05.702Z,2.13
2018-07-20T23:30:34.045Z,3.77
2018-07-20T23:33:02.643Z,3.20
2018-07-20T23:35:31.017Z,6.50
2018-07-20T23:37:59.361Z,7.40
2018-07-20T23:40:27.733Z,3.50
2018-07-20T23:42:56.114Z,8.97
2018-07-20T23:45:24.465Z,3.87
2018-07-20T23:47:52.801Z,2.63
2018-07-20T23:50:21.197Z,2.73
2018-07-20T23:52:49.824Z,2.57
2018-07-20T23:55:18.611Z,2.40
2018-07-20T23:57:46.974Z,2.03
